Time;durP1;ratioP1;P1;durP2;ratioP2;P2;SDS_P1;SDS_P2;PMS_P1;PMS_P2;Temp;Humidity;BMP_temperature;BMP_pressure;BME280_temperature;BME280_humidity;BME280_pressure;Samples;Min_cycle;Max_cycle;Signal;HPM_P1;HPM_P2
2021/08/18 00:00:41;;;;;;;43.38;25.20;;;24.30;61.00;;;;;;4882883;29;20040;-71
2021/08/18 00:03:07;;;;;;;42.08;24.00;;;24.30;61.20;;;;;;4882565;29;20029;-71
2021/08/18 00:05:34;;;;;;;38.67;23.65;;;24.30;61.40;;;;;;4882280;29;20537;-72
2021/08/18 00:08:02;;;;;;;42.03;24.17;;;24.30;61.60;;;;;;4882935;29;20101;-71
2021/08/18 00:10:29;;;;;;;39.25;23.15;;;24.30;61.70;;;;;;4882589;29;20036;-72
2021/08/18 00:12:56;;;;;;;39.60;24.13;;;24.30;61.80;;;;;;4882105;29;20081;-71
2021/08/18 00:15:23;;;;;;;47.30;26.45;;;24.30;61.90;;;;;;4865720;29;20041;-71
2021/08/18 00:17:49;;;;;;;35.55;23.30;;;24.20;62.00;;;;;;4882151;29;20025;-71
2021/08/18 00:20:15;;;;;;;35.33;21.35;;;24.20;62.20;;;;;;4866133;29;20458;-71
2021/08/18 00:22:40;;;;;;;44.70;23.85;;;24.10;62.30;;;;;;4882300;29;20085;-71
2021/08/18 00:25:07;;;;;;;35.65;23.20;;;24.00;62.30;;;;;;4882327;29;20033;-71
2021/08/18 00:27:32;;;;;;;33.85;21.95;;;24.10;62.40;;;;;;4881771;29;20078;-72
2021/08/18 00:29:58;;;;;;;37.78;24.17;;;24.00;62.30;;;;;;4882332;29;20037;-71
2021/08/18 00:32:24;;;;;;;41.47;24.85;;;24.00;62.30;;;;;;4882180;29;20553;-71
2021/08/18 00:34:50;;;;;;;41.35;24.38;;;24.00;62.10;;;;;;4882152;29;20363;-71
2021/08/18 00:37:16;;;;;;;41.47;24.67;;;24.00;62.10;;;;;;4881885;29;20035;-71
2021/08/18 00:39:42;;;;;;;36.85;24.20;;;24.00;62.20;;;;;;4882006;29;20029;-71
2021/08/18 00:42:08;;;;;;;49.15;26.15;;;24.00;62.20;;;;;;4882306;29;20029;-71
2021/08/18 00:44:37;;;;;;;46.72;25.77;;;23.90;62.20;;;;;;4882157;29;20109;-72
2021/08/18 00:47:05;;;;;;;39.15;25.30;;;23.90;62.20;;;;;;4881915;29;20067;-71
2021/08/18 00:49:31;;;;;;;45.22;25.27;;;23.90;62.20;;;;;;4881930;29;20045;-72
2021/08/18 00:51:59;;;;;;;42.78;25.15;;;23.90;62.10;;;;;;4881873;29;20079;-71
2021/08/18 00:54:25;;;;;;;39.10;24.65;;;23.90;62.20;;;;;;4882141;29;20033;-71
2021/08/18 00:56:52;;;;;;;42.78;25.95;;;23.90;62.20;;;;;;4881400;29;20025;-71
2021/08/18 00:59:18;;;;;;;43.38;25.13;;;23.90;62.20;;;;;;4881696;29;20094;-71
2021/08/18 01:01:44;;;;;;;39.75;25.25;;;23.90;62.20;;;;;;4881627;29;20359;-71
2021/08/18 01:04:14;;;;;;;39.88;26.13;;;23.90;62.20;;;;;;4881305;29;20048;-71
2021/08/18 01:06:44;;;;;;;42.53;26.30;;;23.90;62.20;;;;;;4880805;29;20101;-71
2021/08/18 01:09:13;;;;;;;40.10;26.65;;;23.90;62.20;;;;;;4882030;29;20062;-71
2021/08/18 01:11:42;;;;;;;38.25;25.02;;;23.80;62.40;;;;;;4881511;29;20033;-72
2021/08/18 01:14:09;;;;;;;38.47;24.80;;;23.80;62.90;;;;;;4881082;29;20057;-71
2021/08/18 01:16:38;;;;;;;42.05;26.15;;;23.80;62.20;;;;;;4881169;29;20490;-72
2021/08/18 01:19:05;;;;;;;41.53;25.50;;;23.80;62.20;;;;;;4881166;29;20529;-71
2021/08/18 01:21:35;;;;;;;36.28;24.15;;;23.80;62.40;;;;;;4881636;29;20062;-71
2021/08/18 01:24:02;;;;;;;38.67;24.83;;;23.80;62.40;;;;;;4880990;29;20401;-71
2021/08/18 01:26:29;;;;;;;37.72;24.65;;;23.80;62.40;;;;;;4881542;29;20060;-71
2021/08/18 01:28:59;;;;;;;36.40;23.60;;;23.80;62.40;;;;;;4881191;29;20025;-71
2021/08/18 01:31:25;;;;;;;40.03;24.02;;;23.80;62.40;;;;;;4881215;29;20025;-71
2021/08/18 01:33:51;;;;;;;39.90;24.00;;;23.80;62.60;;;;;;4880887;29;20040;-71
2021/08/18 01:36:19;;;;;;;38.55;24.25;;;23.80;62.80;;;;;;4881143;29;20149;-71
2021/08/18 01:38:45;;;;;;;42.78;25.67;;;23.80;63.00;;;;;;4881251;29;20029;-71
2021/08/18 01:41:10;;;;;;;41.17;25.17;;;23.70;63.20;;;;;;4880969;29;20398;-71
2021/08/18 01:43:36;;;;;;;41.53;27.38;;;23.60;63.30;;;;;;4880677;29;20390;-71
2021/08/18 01:46:02;;;;;;;45.85;27.05;;;23.60;63.50;;;;;;4880900;29;20033;-71
2021/08/18 01:48:33;;;;;;;42.03;27.27;;;23.60;63.70;;;;;;4881135;29;20033;-71
2021/08/18 01:51:00;;;;;;;37.50;26.05;;;23.60;63.90;;;;;;4880678;29;20033;-70
2021/08/18 01:53:28;;;;;;;45.70;26.90;;;23.60;64.00;;;;;;4880450;29;20029;-71
2021/08/18 01:55:55;;;;;;;46.30;28.38;;;23.50;64.10;;;;;;4880541;29;20386;-71
2021/08/18 01:58:22;;;;;;;40.45;27.15;;;23.50;64.20;;;;;;4880341;29;20487;-71
2021/08/18 02:00:48;;;;;;;42.70;27.45;;;23.50;64.30;;;;;;4880678;29;20026;-71
2021/08/18 02:03:14;;;;;;;43.60;27.55;;;23.40;64.40;;;;;;4880538;29;20065;-71
2021/08/18 02:05:40;;;;;;;47.40;27.50;;;23.30;64.70;;;;;;4863927;29;20071;-71
2021/08/18 02:08:06;;;;;;;40.90;27.27;;;23.10;65.00;;;;;;4880660;29;20505;-71
2021/08/18 02:10:32;;;;;;;41.38;27.73;;;23.10;65.30;;;;;;4880517;29;20474;-71
2021/08/18 02:12:58;;;;;;;38.45;26.83;;;23.00;65.60;;;;;;4880591;29;20068;-71
2021/08/18 02:15:28;;;;;;;43.17;26.10;;;22.90;65.80;;;;;;4880704;29;20025;-71
2021/08/18 02:17:54;;;;;;;42.35;27.60;;;22.90;66.10;;;;;;4879846;29;20029;-71
2021/08/18 02:20:26;;;;;;;47.60;28.05;;;22.90;66.10;;;;;;4880517;29;20035;-71
2021/08/18 02:22:52;;;;;;;45.95;27.30;;;22.90;66.30;;;;;;4880154;29;20378;-71
2021/08/18 02:25:19;;;;;;;43.65;27.27;;;22.80;66.10;;;;;;4863573;29;20036;-71
2021/08/18 02:27:45;;;;;;;46.85;26.77;;;22.90;66.10;;;;;;4880277;29;20032;-71
2021/08/18 02:30:12;;;;;;;48.03;28.00;;;22.80;66.00;;;;;;4880161;29;20033;-71
2021/08/18 02:32:39;;;;;;;45.67;28.75;;;22.90;66.00;;;;;;4880175;29;20474;-71
2021/08/18 02:35:05;;;;;;;49.38;29.20;;;22.90;66.30;;;;;;4880090;29;20113;-71
2021/08/18 02:37:31;;;;;;;43.53;26.52;;;23.00;65.50;;;;;;4880292;29;20029;-71
2021/08/18 02:39:56;;;;;;;46.08;27.58;;;22.90;65.20;;;;;;4879922;29;20033;-71
2021/08/18 02:42:22;;;;;;;39.92;26.92;;;23.00;65.20;;;;;;4880232;29;20036;-71
2021/08/18 02:44:48;;;;;;;44.88;28.60;;;22.90;65.10;;;;;;4879914;29;20044;-71
2021/08/18 02:47:14;;;;;;;44.92;29.15;;;23.00;65.10;;;;;;4863111;29;20033;-71
2021/08/18 02:49:40;;;;;;;47.63;29.73;;;23.00;65.00;;;;;;4879810;29;20462;-71
2021/08/18 02:52:06;;;;;;;54.92;33.05;;;22.90;65.10;;;;;;4879872;29;20036;-71
2021/08/18 02:54:32;;;;;;;48.03;30.27;;;22.90;65.20;;;;;;4880233;29;20037;-71
2021/08/18 02:56:57;;;;;;;46.53;28.10;;;22.90;65.60;;;;;;4879559;29;20367;-71
2021/08/18 02:59:23;;;;;;;40.63;26.83;;;22.80;66.20;;;;;;4879748;29;20033;-71
2021/08/18 03:01:49;;;;;;;52.67;26.33;;;22.70;66.70;;;;;;4879797;29;20031;-71
2021/08/18 03:04:15;;;;;;;41.55;26.08;;;22.70;67.20;;;;;;4879456;29;20033;-71
2021/08/18 03:06:41;;;;;;;37.10;22.38;;;22.60;67.40;;;;;;4880069;29;20036;-72
2021/08/18 03:09:07;;;;;;;32.28;19.30;;;22.70;67.70;;;;;;4879943;29;20039;-71
2021/08/18 03:11:32;;;;;;;37.30;18.08;;;22.70;68.00;;;;;;4879659;29;20484;-71
2021/08/18 03:13:58;;;;;;;29.45;16.40;;;22.80;68.30;;;;;;4880548;29;20053;-71
2021/08/18 03:16:24;;;;;;;23.33;15.90;;;22.90;68.60;;;;;;4880198;29;20040;-71
2021/08/18 03:18:49;;;;;;;27.42;15.90;;;22.90;68.90;;;;;;4863514;29;20258;-71
2021/08/18 03:21:15;;;;;;;21.13;14.60;;;23.00;69.00;;;;;;4879719;29;20033;-71
2021/08/18 03:23:41;;;;;;;22.60;13.85;;;23.00;69.10;;;;;;4879768;29;20119;-72
2021/08/18 03:26:07;;;;;;;20.10;13.82;;;23.10;69.40;;;;;;4879688;29;20040;-72
2021/08/18 03:28:32;;;;;;;20.98;14.55;;;23.10;69.50;;;;;;4880995;29;20028;-72
2021/08/18 03:30:58;;;;;;;24.02;13.70;;;23.20;69.80;;;;;;4883404;29;20370;-72
2021/08/18 03:33:24;;;;;;;22.27;14.55;;;23.20;70.00;;;;;;4866549;29;20128;-72
2021/08/18 03:35:50;;;;;;;20.40;13.27;;;23.30;70.20;;;;;;4883558;29;20036;-72
2021/08/18 03:38:16;;;;;;;20.70;13.27;;;23.30;70.40;;;;;;4883337;29;20061;-71
2021/08/18 03:40:41;;;;;;;21.35;13.38;;;23.40;70.60;;;;;;4883398;29;20419;-75
2021/08/18 03:43:07;;;;;;;18.60;12.05;;;23.50;70.90;;;;;;4883126;29;20124;-71
2021/08/18 03:45:33;;;;;;;18.15;11.77;;;23.50;70.90;;;;;;4866883;29;20060;-72
2021/08/18 03:47:58;;;;;;;15.68;10.48;;;23.60;71.20;;;;;;4883561;29;20032;-71
2021/08/18 03:50:24;;;;;;;15.23;10.70;;;23.60;71.40;;;;;;4866382;29;20025;-72
2021/08/18 03:52:50;;;;;;;18.92;10.48;;;23.60;71.50;;;;;;4883112;29;20428;-71
2021/08/18 03:55:16;;;;;;;15.40;10.35;;;23.70;71.60;;;;;;4866607;29;20033;-72
2021/08/18 03:57:42;;;;;;;17.98;10.43;;;23.70;71.70;;;;;;4883246;29;20446;-72
2021/08/18 04:00:09;;;;;;;17.02;9.77;;;23.80;71.70;;;;;;4882431;29;20033;-72
2021/08/18 04:02:38;;;;;;;21.77;9.65;;;23.80;71.70;;;;;;4882596;29;20037;-72
2021/08/18 04:05:04;;;;;;;11.48;7.75;;;23.90;71.90;;;;;;4882876;29;20362;-72
2021/08/18 04:07:30;;;;;;;16.45;8.30;;;23.90;71.70;;;;;;4865895;29;20085;-72
2021/08/18 04:09:56;;;;;;;16.15;8.98;;;24.00;71.60;;;;;;4882819;29;20033;-72
2021/08/18 04:12:22;;;;;;;13.55;8.02;;;24.00;71.40;;;;;;4865720;29;20036;-72
2021/08/18 04:14:48;;;;;;;11.70;7.38;;;23.90;71.40;;;;;;4882793;29;20029;-72
2021/08/18 04:17:14;;;;;;;12.48;7.93;;;24.00;71.40;;;;;;4865835;29;20081;-72
2021/08/18 04:19:40;;;;;;;10.43;7.15;;;24.00;71.30;;;;;;4882201;29;20037;-72
2021/08/18 04:22:06;;;;;;;14.32;7.60;;;24.00;71.30;;;;;;4881999;29;20506;-71
2021/08/18 04:24:33;;;;;;;12.88;7.15;;;24.00;71.10;;;;;;4882620;29;20040;-72
2021/08/18 04:26:59;;;;;;;11.77;7.20;;;24.10;70.90;;;;;;4882248;29;20471;-71
2021/08/18 04:29:24;;;;;;;14.23;7.25;;;24.10;70.50;;;;;;4882059;29;20031;-71
2021/08/18 04:31:50;;;;;;;7.65;6.57;;;24.20;70.30;;;;;;4882444;29;20029;-71
2021/08/18 04:34:16;;;;;;;9.07;6.97;;;24.20;70.10;;;;;;4882367;29;20036;-70
2021/08/18 04:36:42;;;;;;;7.60;6.18;;;24.20;69.80;;;;;;4882000;29;20033;-70
2021/08/18 04:39:07;;;;;;;9.15;5.85;;;24.30;69.60;;;;;;4881702;29;20112;-72
2021/08/18 04:41:33;;;;;;;8.10;6.43;;;24.30;69.40;;;;;;4864679;29;20487;-71
2021/08/18 04:43:59;;;;;;;8.68;5.88;;;24.30;69.20;;;;;;4881968;29;20059;-72
2021/08/18 04:46:25;;;;;;;8.82;6.32;;;24.30;69.10;;;;;;4881878;29;20033;-71
2021/08/18 04:48:51;;;;;;;9.95;6.10;;;24.40;69.00;;;;;;4882133;29;20378;-71
2021/08/18 04:51:16;;;;;;;8.63;5.55;;;24.40;68.90;;;;;;4881928;29;20025;-71
2021/08/18 04:53:42;;;;;;;9.82;5.78;;;24.50;68.90;;;;;;4882042;29;20036;-72
2021/08/18 04:56:08;;;;;;;9.80;5.72;;;24.50;68.70;;;;;;4881496;29;20025;-71
2021/08/18 04:58:33;;;;;;;8.55;5.50;;;24.60;68.50;;;;;;4882067;29;20033;-71
2021/08/18 05:00:59;;;;;;;7.70;6.00;;;24.60;68.40;;;;;;4882312;29;20040;-71
2021/08/18 05:03:25;;;;;;;11.48;6.05;;;24.70;68.40;;;;;;4881271;29;20074;-71
2021/08/18 05:05:50;;;;;;;8.85;5.60;;;24.70;68.30;;;;;;4881491;29;20033;-71
2021/08/18 05:08:18;;;;;;;11.95;7.03;;;24.80;68.20;;;;;;4881791;29;20061;-72
2021/08/18 05:10:44;;;;;;;11.05;6.57;;;24.80;68.00;;;;;;4881514;29;20093;-71
2021/08/18 05:13:10;;;;;;;9.07;6.47;;;24.90;67.90;;;;;;4881597;29;20059;-71
2021/08/18 05:15:36;;;;;;;11.18;6.43;;;24.90;67.70;;;;;;4881558;29;20033;-71
2021/08/18 05:18:02;;;;;;;12.27;6.68;;;25.00;67.60;;;;;;4881539;29;20033;-71
2021/08/18 05:20:28;;;;;;;10.70;6.53;;;25.00;67.50;;;;;;4881929;29;20029;-71
2021/08/18 05:22:53;;;;;;;9.98;7.15;;;25.10;67.40;;;;;;4881269;29;20033;-72
2021/08/18 05:25:19;;;;;;;18.90;7.07;;;25.20;67.20;;;;;;4881302;29;20031;-71
2021/08/18 05:27:45;;;;;;;11.32;6.97;;;25.20;67.10;;;;;;4881269;29;20040;-71
2021/08/18 05:30:13;;;;;;;9.88;7.63;;;25.20;66.90;;;;;;4864539;29;20052;-71
2021/08/18 05:32:39;;;;;;;9.85;7.03;;;25.30;66.80;;;;;;4881220;29;20033;-72
2021/08/18 05:35:07;;;;;;;10.68;6.88;;;25.30;66.60;;;;;;4880932;29;20033;-71
2021/08/18 05:37:33;;;;;;;14.27;7.40;;;25.30;66.50;;;;;;4880846;29;20025;-71
2021/08/18 05:39:59;;;;;;;12.80;7.25;;;25.40;66.50;;;;;;4881049;29;20099;-71
2021/08/18 05:42:25;;;;;;;10.88;6.95;;;25.50;66.40;;;;;;4881133;29;20454;-71
2021/08/18 05:44:50;;;;;;;11.63;7.70;;;25.50;66.20;;;;;;4880752;29;20040;-72
2021/08/18 05:47:16;;;;;;;8.88;6.80;;;25.60;65.90;;;;;;4880712;29;20056;-72
2021/08/18 05:49:42;;;;;;;9.10;6.85;;;25.60;65.70;;;;;;4880658;29;20033;-72
2021/08/18 05:52:07;;;;;;;10.50;7.57;;;25.70;65.60;;;;;;4881003;29;20363;-73
2021/08/18 05:54:33;;;;;;;10.68;7.13;;;25.70;65.50;;;;;;4880816;29;20040;-72
2021/08/18 05:56:59;;;;;;;10.90;6.50;;;25.90;65.50;;;;;;4880649;29;20025;-74
2021/08/18 05:59:25;;;;;;;10.77;6.82;;;26.00;65.30;;;;;;4880884;29;20040;-74
2021/08/18 06:01:50;;;;;;;10.32;6.80;;;26.10;65.10;;;;;;4880474;29;20029;-74
2021/08/18 06:04:16;;;;;;;10.98;7.43;;;26.10;64.90;;;;;;4880674;29;20040;-73
2021/08/18 06:06:42;;;;;;;11.27;7.72;;;26.20;64.60;;;;;;4880365;29;20114;-74
2021/08/18 06:09:07;;;;;;;12.32;7.45;;;26.20;64.50;;;;;;4879074;29;20086;-75
2021/08/18 06:11:33;;;;;;;11.57;7.68;;;26.20;64.40;;;;;;4880614;29;20127;-73
2021/08/18 06:13:59;;;;;;;12.30;7.30;;;26.20;64.30;;;;;;4881000;29;20064;-74
2021/08/18 06:16:25;;;;;;;12.73;6.93;;;26.30;64.20;;;;;;4880888;29;20033;-73
2021/08/18 06:18:51;;;;;;;11.48;7.75;;;26.30;64.20;;;;;;4880445;29;20116;-73
2021/08/18 06:21:17;;;;;;;10.15;7.18;;;26.40;64.20;;;;;;4880495;29;20040;-72
2021/08/18 06:23:46;;;;;;;10.38;7.10;;;26.40;64.10;;;;;;4880471;29;20033;-73
2021/08/18 06:26:12;;;;;;;11.27;6.43;;;26.50;64.10;;;;;;4880738;29;20029;-73
2021/08/18 06:28:37;;;;;;;9.32;6.97;;;26.50;64.10;;;;;;4863506;29;20055;-73
2021/08/18 06:31:03;;;;;;;8.80;7.25;;;26.60;64.10;;;;;;4880163;29;20033;-73
2021/08/18 06:33:29;;;;;;;10.13;7.40;;;26.70;64.00;;;;;;4880063;29;20037;-72
2021/08/18 06:35:54;;;;;;;11.27;7.50;;;26.70;63.90;;;;;;4864001;29;20435;-73
2021/08/18 06:38:20;;;;;;;9.43;7.55;;;26.80;63.80;;;;;;4879840;29;20025;-73
2021/08/18 06:40:46;;;;;;;11.75;7.75;;;26.90;63.70;;;;;;4879858;29;20108;-73
2021/08/18 06:43:11;;;;;;;10.60;7.32;;;26.90;63.40;;;;;;4879653;29;20081;-73
2021/08/18 06:45:38;;;;;;;9.63;7.22;;;27.00;63.40;;;;;;4879699;29;20493;-72
2021/08/18 06:48:05;;;;;;;14.02;7.55;;;27.00;63.30;;;;;;4880454;29;20029;-73
2021/08/18 06:50:31;;;;;;;9.38;7.38;;;27.10;63.10;;;;;;4880184;29;20112;-72
2021/08/18 06:52:57;;;;;;;10.40;7.55;;;27.20;63.00;;;;;;4879746;29;20121;-73
2021/08/18 06:55:23;;;;;;;10.07;7.28;;;27.30;62.90;;;;;;4879979;29;20118;-73
2021/08/18 06:57:49;;;;;;;10.55;6.70;;;27.40;62.80;;;;;;4863123;29;20033;-73
2021/08/18 07:00:15;;;;;;;12.90;7.70;;;27.50;62.60;;;;;;4880122;29;20036;-73
2021/08/18 07:02:42;;;;;;;10.55;7.07;;;27.50;62.40;;;;;;4862833;29;20533;-73
2021/08/18 07:05:08;;;;;;;13.73;8.32;;;27.50;62.20;;;;;;4879491;29;20462;-73
2021/08/18 07:07:34;;;;;;;11.65;8.38;;;27.60;62.00;;;;;;4880357;29;20454;-73
2021/08/18 07:10:00;;;;;;;11.27;7.47;;;27.60;61.70;;;;;;4879058;29;20033;-72
2021/08/18 07:12:25;;;;;;;12.55;8.40;;;27.70;62.40;;;;;;4879512;29;20442;-73
2021/08/18 07:14:51;;;;;;;13.43;8.00;;;27.70;61.70;;;;;;4862843;29;20033;-74
2021/08/18 07:17:17;;;;;;;11.73;7.47;;;27.70;61.60;;;;;;4879700;29;20122;-73
2021/08/18 07:19:42;;;;;;;10.43;7.70;;;27.80;61.70;;;;;;4879789;29;20030;-74
2021/08/18 07:22:08;;;;;;;12.25;7.60;;;27.90;61.50;;;;;;4878975;29;20040;-72
2021/08/18 07:24:35;;;;;;;10.63;7.75;;;27.90;61.10;;;;;;4879394;29;20037;-71
2021/08/18 07:27:03;;;;;;;10.52;7.75;;;28.00;61.20;;;;;;4862754;29;20128;-75
2021/08/18 07:29:29;;;;;;;10.35;7.88;;;28.10;61.30;;;;;;4879313;29;20029;-72
2021/08/18 07:31:55;;;;;;;14.00;8.32;;;28.10;60.90;;;;;;4879461;29;20037;-73
2021/08/18 07:34:21;;;;;;;12.57;8.40;;;28.20;60.50;;;;;;4878332;29;20041;-73
2021/08/18 07:36:46;;;;;;;11.85;8.57;;;28.30;60.00;;;;;;4879459;29;20025;-72
2021/08/18 07:39:12;;;;;;;14.15;8.82;;;28.30;59.70;;;;;;4879108;29;20029;-73
2021/08/18 07:41:38;;;;;;;12.63;8.23;;;28.40;59.60;;;;;;4879461;29;20028;-72
2021/08/18 07:44:04;;;;;;;15.63;8.77;;;28.50;59.40;;;;;;4879627;29;20029;-73
2021/08/18 07:46:29;;;;;;;11.80;8.43;;;28.60;59.30;;;;;;4879352;29;20077;-72
2021/08/18 07:48:55;;;;;;;17.48;8.85;;;28.70;59.40;;;;;;4878901;29;20032;-73
2021/08/18 07:51:21;;;;;;;13.63;7.72;;;28.80;59.20;;;;;;4879395;29;20025;-73
2021/08/18 07:53:46;;;;;;;12.57;8.65;;;29.00;59.10;;;;;;4862639;29;20025;-73
2021/08/18 07:56:12;;;;;;;10.32;7.95;;;29.00;58.50;;;;;;4879170;29;20033;-74
2021/08/18 07:58:38;;;;;;;12.38;8.70;;;29.20;58.50;;;;;;4879023;29;20069;-71
2021/08/18 08:01:07;;;;;;;14.43;7.95;;;29.30;58.20;;;;;;4879195;29;20025;-72
2021/08/18 08:03:33;;;;;;;14.05;8.43;;;29.50;58.00;;;;;;4862445;29;20100;-72
2021/08/18 08:05:59;;;;;;;11.60;7.97;;;29.70;57.60;;;;;;4879431;29;20474;-72
2021/08/18 08:08:24;;;;;;;16.50;9.18;;;29.90;57.10;;;;;;4878770;29;20033;-73
2021/08/18 08:10:50;;;;;;;14.70;9.02;;;30.00;56.40;;;;;;4879048;29;20394;-72
2021/08/18 08:13:16;;;;;;;12.43;9.27;;;30.20;55.90;;;;;;4854391;29;20095;-73
2021/08/18 08:15:42;;;;;;;15.35;8.68;;;30.20;55.50;;;;;;4860757;29;20029;-72
2021/08/18 08:18:08;;;;;;;12.40;8.70;;;30.40;55.30;;;;;;4863877;29;20036;-73
2021/08/18 08:20:33;;;;;;;10.63;9.20;;;30.60;55.10;;;;;;4863773;29;20105;-72
2021/08/18 08:23:01;;;;;;;17.13;8.32;;;30.80;54.70;;;;;;4863661;29;20109;-73
2021/08/18 08:25:27;;;;;;;13.35;8.60;;;30.90;54.40;;;;;;4863807;29;20048;-73
2021/08/18 08:27:53;;;;;;;16.17;8.70;;;31.10;54.10;;;;;;4863370;29;20391;-72
2021/08/18 08:30:19;;;;;;;15.23;8.95;;;31.30;53.70;;;;;;4863578;29;20033;-74
2021/08/18 08:32:44;;;;;;;13.45;8.52;;;31.60;53.50;;;;;;4863468;29;20032;-73
2021/08/18 08:35:11;;;;;;;11.70;8.43;;;31.70;53.00;;;;;;4863710;29;20025;-73
2021/08/18 08:37:37;;;;;;;13.43;8.45;;;32.00;52.80;;;;;;4863726;29;20022;-73
2021/08/18 08:40:04;;;;;;;20.00;8.80;;;32.20;52.60;;;;;;4863353;29;20082;-73
2021/08/18 08:42:32;;;;;;;15.48;8.52;;;32.40;52.10;;;;;;4863358;29;20034;-72
2021/08/18 08:45:00;;;;;;;12.18;8.23;;;32.60;52.60;;;;;;4864033;29;20070;-73
2021/08/18 08:47:26;;;;;;;14.20;8.13;;;32.80;51.40;;;;;;4862737;29;20497;-72
2021/08/18 08:49:52;;;;;;;12.40;9.07;;;33.00;51.30;;;;;;4863076;29;20037;-73
2021/08/18 08:52:18;;;;;;;16.58;8.95;;;33.10;51.00;;;;;;4863254;29;20033;-73
2021/08/18 08:54:44;;;;;;;9.88;8.23;;;33.30;50.70;;;;;;4863206;29;20044;-73
2021/08/18 08:57:10;;;;;;;11.15;7.55;;;33.60;50.30;;;;;;4863187;29;20065;-72
2021/08/18 08:59:36;;;;;;;12.55;8.00;;;33.80;50.00;;;;;;4863538;29;20025;-72
2021/08/18 09:02:07;;;;;;;16.75;8.77;;;34.00;49.60;;;;;;4863211;29;20113;-72
2021/08/18 09:04:45;;;;;;;11.18;8.25;;;34.20;49.10;;;;;;4862908;29;20394;-72
2021/08/18 09:07:17;;;;;;;11.30;8.90;;;34.60;48.80;;;;;;4863662;29;20037;-73
2021/08/18 09:09:57;;;;;;;14.57;9.00;;;34.90;48.00;;;;;;4863171;29;20057;-72
2021/08/18 09:12:36;;;;;;;12.18;8.30;;;35.10;47.80;;;;;;4863630;29;20517;-71
2021/08/18 09:15:18;;;;;;;13.23;7.97;;;35.40;47.50;;;;;;4881402;29;20096;-72
2021/08/18 09:17:46;;;;;;;10.85;8.15;;;35.60;47.00;;;;;;4881606;29;20040;-72
2021/08/18 09:20:17;;;;;;;11.90;7.93;;;35.80;46.90;;;;;;4881636;29;20466;-72
2021/08/18 09:22:43;;;;;;;10.57;7.60;;;36.10;46.90;;;;;;4881167;29;20029;-73
2021/08/18 09:25:11;;;;;;;12.38;8.10;;;36.20;46.70;;;;;;4881154;29;20347;-72
2021/08/18 09:27:38;;;;;;;14.40;8.55;;;36.30;46.80;;;;;;4880749;29;20033;-71
2021/08/18 09:30:16;;;;;;;13.93;7.47;;;36.50;46.60;;;;;;4881123;29;20378;-72
2021/08/18 09:32:42;;;;;;;12.02;8.55;;;36.80;46.30;;;;;;4881059;29;20033;-72
2021/08/18 09:35:09;;;;;;;13.55;7.35;;;37.00;46.10;;;;;;4880650;29;20443;-72
2021/08/18 09:37:37;;;;;;;12.57;7.78;;;37.20;45.60;;;;;;4881244;29;20033;-71
2021/08/18 09:40:19;;;;;;;19.02;8.02;;;37.40;45.30;;;;;;4881306;29;20029;-72
2021/08/18 09:42:45;;;;;;;14.20;8.00;;;37.70;45.30;;;;;;4880870;29;20048;-72
2021/08/18 09:45:19;;;;;;;10.50;7.50;;;37.90;45.10;;;;;;4881265;29;20045;-72
2021/08/18 09:48:08;;;;;;;11.38;7.57;;;38.10;44.60;;;;;;4880719;29;20025;-72
2021/08/18 09:50:52;;;;;;;11.23;7.70;;;38.40;44.00;;;;;;4881149;29;20032;-72
2021/08/18 09:53:27;;;;;;;;;;;38.60;43.20;;;;;;4881111;29;20028;-72
2021/08/18 09:55:55;;;;;;;13.23;8.05;;;38.70;43.80;;;;;;4880755;29;20356;-72
2021/08/18 09:58:25;;;;;;;16.88;8.00;;;39.00;42.90;;;;;;4880620;29;20057;-71
2021/08/18 10:00:51;;;;;;;10.73;7.32;;;39.10;42.60;;;;;;4880511;29;20493;-72
2021/08/18 10:03:17;;;;;;;12.13;8.50;;;39.30;42.30;;;;;;4880608;29;20039;-72
2021/08/18 10:05:43;;;;;;;14.73;8.48;;;39.50;41.80;;;;;;4880606;29;20116;-72
2021/08/18 10:08:09;;;;;;;11.85;8.27;;;39.80;41.60;;;;;;4880492;29;20478;-72
2021/08/18 10:10:39;;;;;;;16.67;8.38;;;39.90;41.20;;;;;;4880394;29;20108;-72
2021/08/18 10:13:07;;;;;;;13.23;8.35;;;40.00;41.20;;;;;;4863456;29;20072;-72
2021/08/18 10:15:33;;;;;;;16.52;8.30;;;40.00;41.30;;;;;;4880432;29;20040;-72
2021/08/18 10:17:59;;;;;;;12.00;7.65;;;40.10;41.10;;;;;;4880603;29;20048;-72
2021/08/18 10:20:25;;;;;;;13.07;8.60;;;40.10;41.00;;;;;;4880508;29;20037;-73
2021/08/18 10:23:10;;;;;;;12.98;8.48;;;39.70;41.20;;;;;;4863507;29;20033;-72
2021/08/18 10:25:48;;;;;;;16.73;8.57;;;39.80;41.40;;;;;;4880278;29;20045;-72
2021/08/18 10:28:18;;;;;;;11.30;7.68;;;40.20;41.10;;;;;;4880556;29;20033;-72
2021/08/18 10:30:46;;;;;;;16.17;8.60;;;40.50;40.60;;;;;;4880249;29;20025;-75
2021/08/18 10:33:50;;;;;;;13.00;8.63;;;41.00;40.50;;;;;;4863542;29;20033;-72
2021/08/18 10:36:41;;;;;;;12.05;8.50;;;41.50;40.20;;;;;;4880334;29;20029;-72
2021/08/18 10:39:18;;;;;;;13.75;8.98;;;42.00;39.70;;;;;;4879414;29;20025;-72
2021/08/18 10:42:05;;;;;;;15.18;8.50;;;42.30;39.20;;;;;;4879967;29;20029;-72
2021/08/18 10:44:35;;;;;;;13.50;8.75;;;42.40;38.90;;;;;;4879988;29;20458;-72
2021/08/18 10:47:24;;;;;;;9.93;7.57;;;42.70;38.60;;;;;;4879928;29;20080;-73
2021/08/18 10:49:58;;;;;;;2.08;1.75;;;42.70;38.50;;;;;;4863212;29;20073;-72
2021/08/18 10:52:30;;;;;;;0.00;0.00;;;42.80;38.60;;;;;;4879905;29;20029;-73
2021/08/18 10:55:09;;;;;;;0.00;0.00;;;43.00;38.60;;;;;;4879744;29;20462;-73
2021/08/18 10:57:48;;;;;;;0.00;0.00;;;43.20;38.30;;;;;;4879644;29;20037;-75
2021/08/18 11:00:33;;;;;;;0.05;0.05;;;43.50;38.10;;;;;;4879779;29;20040;-73
2021/08/18 11:03:03;;;;;;;0.00;0.00;;;43.70;38.00;;;;;;4879902;29;20084;-73
2021/08/18 11:05:36;;;;;;;0.00;0.00;;;43.90;37.70;;;;;;4862737;29;20029;-73
2021/08/18 11:08:20;;;;;;;0.00;0.00;;;44.10;37.50;;;;;;4879984;29;20036;-74
2021/08/18 11:10:52;;;;;;;0.00;0.00;;;44.30;37.50;;;;;;4880159;29;20036;-73
2021/08/18 11:13:34;;;;;;;0.00;0.00;;;44.60;37.40;;;;;;4862823;29;20092;-73
2021/08/18 11:16:05;;;;;;;0.10;0.10;;;44.80;37.40;;;;;;4879768;29;20044;-73
2021/08/18 11:18:31;;;;;;;0.00;0.00;;;44.90;37.30;;;;;;4879600;29;20055;-73
2021/08/18 11:20:57;;;;;;;0.00;0.00;;;45.10;37.30;;;;;;4880165;29;20366;-73
2021/08/18 11:23:25;;;;;;;0.00;0.00;;;45.10;37.20;;;;;;4863521;29;20040;-73
2021/08/18 11:25:56;;;;;;;0.00;0.00;;;45.20;37.00;;;;;;4879899;29;20107;-73
2021/08/18 11:28:24;;;;;;;0.00;0.00;;;44.30;37.10;;;;;;4879587;29;20029;-73
2021/08/18 11:31:00;;;;;;;0.00;0.00;;;43.60;38.50;;;;;;4862922;29;20131;-73
2021/08/18 11:33:27;;;;;;;0.00;0.00;;;43.60;38.20;;;;;;4878241;29;20135;-75
2021/08/18 11:35:53;;;;;;;0.00;0.00;;;43.90;38.30;;;;;;4879462;29;20025;-73
2021/08/18 11:38:19;;;;;;;0.00;0.00;;;44.20;38.10;;;;;;4879154;29;20124;-73
2021/08/18 11:40:48;;;;;;;0.00;0.00;;;44.60;37.80;;;;;;4879417;29;20108;-73
2021/08/18 11:43:14;;;;;;;0.00;0.00;;;45.00;37.60;;;;;;4879788;29;20116;-73
2021/08/18 11:45:40;;;;;;;0.00;0.00;;;45.10;37.20;;;;;;4879465;29;20112;-73
2021/08/18 11:48:11;;;;;;;0.00;0.00;;;45.10;37.00;;;;;;4879651;29;20116;-73
2021/08/18 11:50:50;;;;;;;0.00;0.00;;;44.70;36.90;;;;;;4882594;29;20029;-73
2021/08/18 11:53:17;;;;;;;0.00;0.00;;;43.90;37.30;;;;;;4883515;29;20040;-76
2021/08/18 11:55:43;;;;;;;0.00;0.00;;;43.30;37.90;;;;;;4883858;29;20033;-79
2021/08/18 11:58:09;;;;;;;0.00;0.00;;;43.50;38.20;;;;;;4883124;29;20029;-77
2021/08/18 12:00:36;;;;;;;0.00;0.00;;;43.90;38.00;;;;;;4882897;29;20036;-74
2021/08/18 12:03:02;;;;;;;0.00;0.00;;;44.20;37.70;;;;;;4882446;29;20025;-76
2021/08/18 12:05:33;;;;;;;0.00;0.00;;;44.10;37.60;;;;;;4883033;29;20088;-74
2021/08/18 12:08:17;;;;;;;0.10;0.00;;;43.60;37.80;;;;;;4882301;29;20498;-74
2021/08/18 12:10:45;;;;;;;0.00;0.00;;;42.40;38.40;;;;;;4882575;29;20036;-75
2021/08/18 12:13:16;;;;;;;0.00;0.00;;;41.20;39.40;;;;;;4882958;29;20049;-74
2021/08/18 12:15:46;;;;;;;0.00;0.00;;;40.20;40.40;;;;;;4882133;29;20025;-74
2021/08/18 12:18:27;;;;;;;0.08;0.00;;;39.40;41.30;;;;;;4882173;29;20497;-73
2021/08/18 12:20:53;;;;;;;0.00;0.00;;;38.50;42.20;;;;;;4882174;29;20040;-76
2021/08/18 12:23:26;;;;;;;0.00;0.00;;;37.90;42.70;;;;;;4881600;29;20037;-77
2021/08/18 12:25:52;;;;;;;0.00;0.00;;;37.40;43.40;;;;;;4882477;29;20104;-76
2021/08/18 12:28:19;;;;;;;0.00;0.00;;;37.10;43.90;;;;;;4882580;29;20748;-75
2021/08/18 12:30:59;;;;;;;0.00;0.00;;;37.50;44.30;;;;;;4882198;29;20028;-76
2021/08/18 12:33:25;;;;;;;0.00;0.00;;;38.20;43.80;;;;;;4881978;29;20071;-74
2021/08/18 12:36:11;;;;;;;0.00;0.00;;;38.30;43.30;;;;;;4882153;29;20076;-73
2021/08/18 12:39:00;;;;;;;0.00;0.00;;;38.00;43.40;;;;;;4881734;29;20088;-77